Terminal Aerodrome Forecast
Issued by NWS Cleveland, OH

Home | Current Version | Previous Version | Text Only | Print | Product List | Glossary On
Versions: 1 2 3 4 5 6 7 8 9 10 11 12 13 14 15
911
FTUS41 KCLE 062338
TAFERI
TAF
KERI 062338Z 0700/0724 VRB03KT P6SM BKN150 OVC250
     FM070800 18006KT P6SM FEW150 SCT250
     FM071500 19010KT P6SM SCT150 BKN250
     FM072000 23012KT P6SM VCTS SCT025 OVC045CB=

USA.gov is the U.S. government's official web portal to all federal, state and local government web resources and services.